sensor_id;sensor_type;location;lat;lon;timestamp;P1;durP1;ratioP1;P2;durP2;ratioP2
68507;SDS011;55510;49.560;19.090;2023-06-14T00:02:22;8.55;;;4.20;;
68507;SDS011;55510;49.560;19.090;2023-06-14T00:05:22;7.97;;;3.73;;
68507;SDS011;55510;49.560;19.090;2023-06-14T00:08:24;8.48;;;3.47;;
68507;SDS011;55510;49.560;19.090;2023-06-14T00:11:25;10.27;;;4.70;;
68507;SDS011;55510;49.560;19.090;2023-06-14T00:14:27;10.23;;;4.30;;
68507;SDS011;55510;49.560;19.090;2023-06-14T00:17:27;8.70;;;3.80;;
68507;SDS011;55510;49.560;19.090;2023-06-14T00:20:32;9.07;;;3.67;;
68507;SDS011;55510;49.560;19.090;2023-06-14T00:23:33;10.60;;;4.43;;
68507;SDS011;55510;49.560;19.090;2023-06-14T00:26:34;8.27;;;3.80;;
68507;SDS011;55510;49.560;19.090;2023-06-14T00:29:35;9.77;;;4.53;;
68507;SDS011;55510;49.560;19.090;2023-06-14T00:32:35;10.10;;;4.50;;
68507;SDS011;55510;49.560;19.090;2023-06-14T00:35:36;10.73;;;4.13;;
68507;SDS011;55510;49.560;19.090;2023-06-14T00:38:37;8.70;;;3.92;;
68507;SDS011;55510;49.560;19.090;2023-06-14T00:41:38;8.65;;;4.15;;
68507;SDS011;55510;49.560;19.090;2023-06-14T00:44:40;7.07;;;3.80;;
68507;SDS011;55510;49.560;19.090;2023-06-14T00:47:41;9.10;;;4.20;;
68507;SDS011;55510;49.560;19.090;2023-06-14T00:50:43;8.98;;;4.75;;
68507;SDS011;55510;49.560;19.090;2023-06-14T00:53:48;9.57;;;4.40;;
68507;SDS011;55510;49.560;19.090;2023-06-14T00:56:50;11.02;;;5.13;;
68507;SDS011;55510;49.560;19.090;2023-06-14T00:59:51;9.50;;;4.50;;
68507;SDS011;55510;49.560;19.090;2023-06-14T01:02:51;10.20;;;3.90;;
68507;SDS011;55510;49.560;19.090;2023-06-14T01:05:53;10.57;;;4.70;;
68507;SDS011;55510;49.560;19.090;2023-06-14T01:12:13;17.40;;;8.93;;
68507;SDS011;55510;49.560;19.090;2023-06-14T01:15:29;12.02;;;6.28;;
68507;SDS011;55510;49.560;19.090;2023-06-14T01:18:31;11.70;;;6.10;;
68507;SDS011;55510;49.560;19.090;2023-06-14T01:21:33;11.60;;;5.63;;
68507;SDS011;55510;49.560;19.090;2023-06-14T01:24:41;11.35;;;5.25;;
68507;SDS011;55510;49.560;19.090;2023-06-14T01:27:45;11.70;;;5.97;;
68507;SDS011;55510;49.560;19.090;2023-06-14T01:30:47;9.93;;;5.40;;
68507;SDS011;55510;49.560;19.090;2023-06-14T01:33:53;9.90;;;4.20;;
68507;SDS011;55510;49.560;19.090;2023-06-14T01:36:55;10.00;;;4.60;;
68507;SDS011;55510;49.560;19.090;2023-06-14T01:39:57;9.60;;;4.05;;
68507;SDS011;55510;49.560;19.090;2023-06-14T01:42:58;8.85;;;3.58;;
68507;SDS011;55510;49.560;19.090;2023-06-14T01:45:59;7.73;;;3.80;;
68507;SDS011;55510;49.560;19.090;2023-06-14T01:49:01;10.95;;;3.22;;
68507;SDS011;55510;49.560;19.090;2023-06-14T01:52:02;10.13;;;4.53;;
68507;SDS011;55510;49.560;19.090;2023-06-14T01:55:06;9.15;;;5.00;;
68507;SDS011;55510;49.560;19.090;2023-06-14T01:58:08;11.10;;;4.83;;
68507;SDS011;55510;49.560;19.090;2023-06-14T02:01:09;8.77;;;4.60;;
68507;SDS011;55510;49.560;19.090;2023-06-14T02:04:11;8.30;;;4.18;;
68507;SDS011;55510;49.560;19.090;2023-06-14T02:07:12;7.30;;;3.70;;
68507;SDS011;55510;49.560;19.090;2023-06-14T02:10:13;9.73;;;4.35;;
68507;SDS011;55510;49.560;19.090;2023-06-14T02:13:15;10.40;;;4.40;;
68507;SDS011;55510;49.560;19.090;2023-06-14T02:16:16;11.20;;;5.40;;
68507;SDS011;55510;49.560;19.090;2023-06-14T02:19:17;11.33;;;4.80;;
68507;SDS011;55510;49.560;19.090;2023-06-14T02:22:19;13.75;;;6.28;;
68507;SDS011;55510;49.560;19.090;2023-06-14T02:25:20;10.55;;;5.28;;
68507;SDS011;55510;49.560;19.090;2023-06-14T02:28:21;14.00;;;7.50;;
68507;SDS011;55510;49.560;19.090;2023-06-14T02:31:22;10.57;;;5.60;;
68507;SDS011;55510;49.560;19.090;2023-06-14T02:34:23;11.27;;;5.73;;
68507;SDS011;55510;49.560;19.090;2023-06-14T02:37:23;9.98;;;4.93;;
68507;SDS011;55510;49.560;19.090;2023-06-14T02:40:24;9.07;;;3.90;;
68507;SDS011;55510;49.560;19.090;2023-06-14T02:43:25;8.55;;;4.43;;
68507;SDS011;55510;49.560;19.090;2023-06-14T02:46:25;7.87;;;3.87;;
68507;SDS011;55510;49.560;19.090;2023-06-14T02:49:26;9.57;;;3.97;;
68507;SDS011;55510;49.560;19.090;2023-06-14T02:52:27;7.50;;;4.05;;
68507;SDS011;55510;49.560;19.090;2023-06-14T02:55:27;8.43;;;3.60;;
68507;SDS011;55510;49.560;19.090;2023-06-14T02:58:28;6.20;;;3.53;;
68507;SDS011;55510;49.560;19.090;2023-06-14T03:01:28;7.93;;;3.93;;
68507;SDS011;55510;49.560;19.090;2023-06-14T03:04:34;7.63;;;3.35;;
68507;SDS011;55510;49.560;19.090;2023-06-14T03:07:38;8.80;;;4.30;;
68507;SDS011;55510;49.560;19.090;2023-06-14T03:10:45;10.27;;;4.23;;
68507;SDS011;55510;49.560;19.090;2023-06-14T03:13:47;8.85;;;4.28;;
68507;SDS011;55510;49.560;19.090;2023-06-14T03:16:48;8.80;;;4.45;;
68507;SDS011;55510;49.560;19.090;2023-06-14T03:19:50;9.60;;;4.53;;
68507;SDS011;55510;49.560;19.090;2023-06-14T03:22:51;11.13;;;4.40;;
68507;SDS011;55510;49.560;19.090;2023-06-14T03:25:52;9.55;;;4.35;;
68507;SDS011;55510;49.560;19.090;2023-06-14T03:28:53;7.37;;;3.07;;
68507;SDS011;55510;49.560;19.090;2023-06-14T03:31:57;7.97;;;4.20;;
68507;SDS011;55510;49.560;19.090;2023-06-14T03:34:58;8.95;;;4.25;;
68507;SDS011;55510;49.560;19.090;2023-06-14T03:37:59;8.43;;;4.13;;
68507;SDS011;55510;49.560;19.090;2023-06-14T03:41:00;9.18;;;4.05;;
68507;SDS011;55510;49.560;19.090;2023-06-14T03:44:01;9.07;;;4.63;;
68507;SDS011;55510;49.560;19.090;2023-06-14T03:47:01;10.73;;;4.15;;
68507;SDS011;55510;49.560;19.090;2023-06-14T03:50:03;10.10;;;4.53;;
68507;SDS011;55510;49.560;19.090;2023-06-14T03:53:04;10.05;;;3.55;;
68507;SDS011;55510;49.560;19.090;2023-06-14T03:56:05;10.73;;;4.30;;
68507;SDS011;55510;49.560;19.090;2023-06-14T03:59:06;10.67;;;4.67;;
68507;SDS011;55510;49.560;19.090;2023-06-14T04:02:06;9.40;;;5.03;;
68507;SDS011;55510;49.560;19.090;2023-06-14T04:05:09;9.45;;;4.10;;
68507;SDS011;55510;49.560;19.090;2023-06-14T04:08:10;9.95;;;4.00;;
68507;SDS011;55510;49.560;19.090;2023-06-14T04:11:11;8.27;;;3.53;;
68507;SDS011;55510;49.560;19.090;2023-06-14T04:14:11;7.88;;;3.60;;
68507;SDS011;55510;49.560;19.090;2023-06-14T04:17:12;7.40;;;3.35;;
68507;SDS011;55510;49.560;19.090;2023-06-14T04:20:14;10.60;;;4.80;;
68507;SDS011;55510;49.560;19.090;2023-06-14T04:23:17;8.18;;;3.40;;
68507;SDS011;55510;49.560;19.090;2023-06-14T04:26:22;8.30;;;4.20;;
68507;SDS011;55510;49.560;19.090;2023-06-14T04:29:24;9.10;;;3.77;;
68507;SDS011;55510;49.560;19.090;2023-06-14T04:32:27;8.23;;;3.20;;
68507;SDS011;55510;49.560;19.090;2023-06-14T04:35:29;7.43;;;3.13;;
68507;SDS011;55510;49.560;19.090;2023-06-14T04:38:32;10.43;;;4.53;;
68507;SDS011;55510;49.560;19.090;2023-06-14T04:41:35;10.20;;;4.43;;
68507;SDS011;55510;49.560;19.090;2023-06-14T04:44:35;8.10;;;4.17;;
68507;SDS011;55510;49.560;19.090;2023-06-14T04:47:36;8.13;;;3.90;;
68507;SDS011;55510;49.560;19.090;2023-06-14T04:50:37;7.85;;;3.50;;
68507;SDS011;55510;49.560;19.090;2023-06-14T04:53:40;7.97;;;3.20;;
68507;SDS011;55510;49.560;19.090;2023-06-14T04:56:41;7.10;;;3.75;;
68507;SDS011;55510;49.560;19.090;2023-06-14T04:59:48;7.53;;;3.53;;
68507;SDS011;55510;49.560;19.090;2023-06-14T05:02:54;9.52;;;3.85;;
68507;SDS011;55510;49.560;19.090;2023-06-14T05:05:55;12.02;;;5.80;;
68507;SDS011;55510;49.560;19.090;2023-06-14T05:08:56;13.57;;;5.40;;
68507;SDS011;55510;49.560;19.090;2023-06-14T05:11:57;9.93;;;4.22;;
68507;SDS011;55510;49.560;19.090;2023-06-14T05:14:58;8.63;;;3.55;;
68507;SDS011;55510;49.560;19.090;2023-06-14T05:17:59;7.87;;;3.43;;
68507;SDS011;55510;49.560;19.090;2023-06-14T05:21:00;6.53;;;3.65;;
68507;SDS011;55510;49.560;19.090;2023-06-14T05:24:04;8.23;;;3.22;;
68507;SDS011;55510;49.560;19.090;2023-06-14T05:27:05;6.37;;;2.60;;
68507;SDS011;55510;49.560;19.090;2023-06-14T05:30:06;6.60;;;2.40;;
68507;SDS011;55510;49.560;19.090;2023-06-14T05:33:08;6.03;;;2.83;;
68507;SDS011;55510;49.560;19.090;2023-06-14T05:36:09;7.33;;;2.93;;
68507;SDS011;55510;49.560;19.090;2023-06-14T05:39:09;7.67;;;2.87;;
68507;SDS011;55510;49.560;19.090;2023-06-14T05:42:10;6.25;;;2.60;;
68507;SDS011;55510;49.560;19.090;2023-06-14T05:45:11;7.57;;;3.07;;
68507;SDS011;55510;49.560;19.090;2023-06-14T05:48:12;5.77;;;2.70;;
68507;SDS011;55510;49.560;19.090;2023-06-14T05:51:13;5.68;;;2.20;;
68507;SDS011;55510;49.560;19.090;2023-06-14T05:54:15;5.90;;;2.80;;
68507;SDS011;55510;49.560;19.090;2023-06-14T05:57:15;5.07;;;2.23;;
68507;SDS011;55510;49.560;19.090;2023-06-14T06:00:17;4.75;;;2.10;;
68507;SDS011;55510;49.560;19.090;2023-06-14T06:03:18;5.25;;;2.45;;
68507;SDS011;55510;49.560;19.090;2023-06-14T06:06:19;5.63;;;2.33;;
68507;SDS011;55510;49.560;19.090;2023-06-14T06:09:20;5.60;;;2.07;;
68507;SDS011;55510;49.560;19.090;2023-06-14T06:12:20;5.30;;;2.30;;
68507;SDS011;55510;49.560;19.090;2023-06-14T06:18:53;4.70;;;2.30;;
68507;SDS011;55510;49.560;19.090;2023-06-14T06:21:54;8.73;;;3.83;;
68507;SDS011;55510;49.560;19.090;2023-06-14T06:24:55;7.78;;;2.63;;
68507;SDS011;55510;49.560;19.090;2023-06-14T06:27:55;5.37;;;2.20;;
68507;SDS011;55510;49.560;19.090;2023-06-14T06:30:57;5.22;;;2.50;;
68507;SDS011;55510;49.560;19.090;2023-06-14T06:33:57;8.33;;;3.50;;
68507;SDS011;55510;49.560;19.090;2023-06-14T06:36:59;6.13;;;2.70;;
68507;SDS011;55510;49.560;19.090;2023-06-14T06:39:59;8.23;;;4.23;;
68507;SDS011;55510;49.560;19.090;2023-06-14T06:43:01;6.50;;;2.88;;
68507;SDS011;55510;49.560;19.090;2023-06-14T06:46:02;8.73;;;3.40;;
68507;SDS011;55510;49.560;19.090;2023-06-14T06:49:03;5.90;;;2.72;;
68507;SDS011;55510;49.560;19.090;2023-06-14T06:52:05;14.93;;;9.03;;
68507;SDS011;55510;49.560;19.090;2023-06-14T06:55:07;10.68;;;5.03;;
68507;SDS011;55510;49.560;19.090;2023-06-14T06:58:09;8.05;;;2.97;;
68507;SDS011;55510;49.560;19.090;2023-06-14T07:01:10;8.17;;;4.10;;
68507;SDS011;55510;49.560;19.090;2023-06-14T07:04:11;5.88;;;2.58;;
68507;SDS011;55510;49.560;19.090;2023-06-14T07:07:13;6.20;;;2.63;;
68507;SDS011;55510;49.560;19.090;2023-06-14T07:10:13;5.77;;;2.63;;
68507;SDS011;55510;49.560;19.090;2023-06-14T07:13:14;7.72;;;2.60;;
68507;SDS011;55510;49.560;19.090;2023-06-14T07:16:15;8.43;;;3.50;;
68507;SDS011;55510;49.560;19.090;2023-06-14T07:19:16;5.35;;;2.50;;
68507;SDS011;55510;49.560;19.090;2023-06-14T07:22:17;5.10;;;2.20;;
68507;SDS011;55510;49.560;19.090;2023-06-14T07:25:18;5.00;;;2.00;;
68507;SDS011;55510;49.560;19.090;2023-06-14T07:28:20;5.30;;;2.13;;
68507;SDS011;55510;49.560;19.090;2023-06-14T07:31:21;5.55;;;2.20;;
68507;SDS011;55510;49.560;19.090;2023-06-14T07:34:22;7.07;;;2.63;;
68507;SDS011;55510;49.560;19.090;2023-06-14T07:37:22;7.90;;;3.03;;
68507;SDS011;55510;49.560;19.090;2023-06-14T07:40:23;6.27;;;2.30;;
68507;SDS011;55510;49.560;19.090;2023-06-14T07:43:24;4.78;;;2.03;;
68507;SDS011;55510;49.560;19.090;2023-06-14T07:46:24;6.30;;;2.23;;
68507;SDS011;55510;49.560;19.090;2023-06-14T07:49:25;8.80;;;3.15;;
68507;SDS011;55510;49.560;19.090;2023-06-14T07:52:26;5.95;;;2.40;;
68507;SDS011;55510;49.560;19.090;2023-06-14T07:55:27;5.63;;;2.20;;
68507;SDS011;55510;49.560;19.090;2023-06-14T07:58:28;5.28;;;2.50;;
68507;SDS011;55510;49.560;19.090;2023-06-14T08:01:29;9.00;;;3.33;;
68507;SDS011;55510;49.560;19.090;2023-06-14T08:04:30;7.87;;;3.60;;
68507;SDS011;55510;49.560;19.090;2023-06-14T08:07:32;5.60;;;3.00;;
68507;SDS011;55510;49.560;19.090;2023-06-14T08:10:32;7.40;;;2.90;;
68507;SDS011;55510;49.560;19.090;2023-06-14T08:13:33;4.85;;;2.10;;
68507;SDS011;55510;49.560;19.090;2023-06-14T08:16:34;4.83;;;2.20;;
68507;SDS011;55510;49.560;19.090;2023-06-14T08:19:35;6.32;;;2.70;;
68507;SDS011;55510;49.560;19.090;2023-06-14T08:22:37;5.50;;;2.20;;
68507;SDS011;55510;49.560;19.090;2023-06-14T08:25:38;5.72;;;2.20;;
68507;SDS011;55510;49.560;19.090;2023-06-14T08:28:39;8.13;;;3.53;;
68507;SDS011;55510;49.560;19.090;2023-06-14T08:31:40;7.80;;;2.85;;
68507;SDS011;55510;49.560;19.090;2023-06-14T08:34:40;6.23;;;2.70;;
68507;SDS011;55510;49.560;19.090;2023-06-14T08:37:41;9.40;;;3.75;;
68507;SDS011;55510;49.560;19.090;2023-06-14T08:40:42;12.80;;;6.23;;
68507;SDS011;55510;49.560;19.090;2023-06-14T08:43:43;11.20;;;6.00;;
68507;SDS011;55510;49.560;19.090;2023-06-14T08:46:43;7.70;;;4.33;;
68507;SDS011;55510;49.560;19.090;2023-06-14T08:49:46;7.75;;;4.13;;
68507;SDS011;55510;49.560;19.090;2023-06-14T08:52:51;4.85;;;2.40;;
68507;SDS011;55510;49.560;19.090;2023-06-14T08:55:55;5.07;;;1.90;;
68507;SDS011;55510;49.560;19.090;2023-06-14T08:58:56;8.77;;;3.43;;
68507;SDS011;55510;49.560;19.090;2023-06-14T09:02:01;5.05;;;2.40;;
68507;SDS011;55510;49.560;19.090;2023-06-14T09:05:03;5.75;;;2.42;;
68507;SDS011;55510;49.560;19.090;2023-06-14T09:08:04;10.27;;;4.90;;
68507;SDS011;55510;49.560;19.090;2023-06-14T09:11:05;5.63;;;2.42;;
68507;SDS011;55510;49.560;19.090;2023-06-14T09:14:06;5.83;;;2.53;;
68507;SDS011;55510;49.560;19.090;2023-06-14T09:17:06;5.07;;;2.47;;
68507;SDS011;55510;49.560;19.090;2023-06-14T09:20:08;8.47;;;4.47;;
68507;SDS011;55510;49.560;19.090;2023-06-14T09:23:21;4.97;;;2.15;;
68507;SDS011;55510;49.560;19.090;2023-06-14T09:26:22;3.92;;;2.08;;
68507;SDS011;55510;49.560;19.090;2023-06-14T09:29:23;3.28;;;1.35;;
68507;SDS011;55510;49.560;19.090;2023-06-14T09:32:24;4.27;;;2.27;;
68507;SDS011;55510;49.560;19.090;2023-06-14T09:35:25;4.25;;;1.83;;
68507;SDS011;55510;49.560;19.090;2023-06-14T09:38:26;4.57;;;2.67;;
68507;SDS011;55510;49.560;19.090;2023-06-14T09:41:30;4.10;;;1.90;;
68507;SDS011;55510;49.560;19.090;2023-06-14T09:44:38;3.50;;;1.50;;
68507;SDS011;55510;49.560;19.090;2023-06-14T09:47:38;3.77;;;1.73;;
68507;SDS011;55510;49.560;19.090;2023-06-14T09:50:39;3.80;;;2.10;;
68507;SDS011;55510;49.560;19.090;2023-06-14T09:53:40;4.45;;;2.78;;
68507;SDS011;55510;49.560;19.090;2023-06-14T09:56:46;6.23;;;2.20;;
68507;SDS011;55510;49.560;19.090;2023-06-14T09:59:50;3.73;;;2.07;;
68507;SDS011;55510;49.560;19.090;2023-06-14T10:02:54;3.15;;;1.70;;
68507;SDS011;55510;49.560;19.090;2023-06-14T10:06:02;7.25;;;3.80;;
68507;SDS011;55510;49.560;19.090;2023-06-14T10:09:07;3.58;;;1.88;;
68507;SDS011;55510;49.560;19.090;2023-06-14T10:12:09;3.87;;;1.90;;
68507;SDS011;55510;49.560;19.090;2023-06-14T10:15:13;4.37;;;2.77;;
68507;SDS011;55510;49.560;19.090;2023-06-14T10:25:06;4.65;;;2.25;;
68507;SDS011;55510;49.560;19.090;2023-06-14T10:28:19;7.53;;;2.13;;
68507;SDS011;55510;49.560;19.090;2023-06-14T10:31:23;5.17;;;2.10;;
68507;SDS011;55510;49.560;19.090;2023-06-14T10:34:41;4.03;;;1.70;;
68507;SDS011;55510;49.560;19.090;2023-06-14T10:37:42;3.70;;;2.23;;
68507;SDS011;55510;49.560;19.090;2023-06-14T10:40:52;5.72;;;2.88;;
68507;SDS011;55510;49.560;19.090;2023-06-14T10:50:29;4.00;;;2.05;;
68507;SDS011;55510;49.560;19.090;2023-06-14T10:53:38;7.10;;;2.97;;
68507;SDS011;55510;49.560;19.090;2023-06-14T10:56:47;6.43;;;3.13;;
68507;SDS011;55510;49.560;19.090;2023-06-14T10:59:48;12.02;;;6.47;;
68507;SDS011;55510;49.560;19.090;2023-06-14T11:05:53;6.47;;;3.40;;
68507;SDS011;55510;49.560;19.090;2023-06-14T11:12:26;5.50;;;2.63;;
68507;SDS011;55510;49.560;19.090;2023-06-14T11:15:38;5.03;;;2.40;;
68507;SDS011;55510;49.560;19.090;2023-06-14T11:18:43;5.90;;;2.72;;
68507;SDS011;55510;49.560;19.090;2023-06-14T11:21:48;6.40;;;2.72;;
68507;SDS011;55510;49.560;19.090;2023-06-14T11:24:49;6.15;;;2.85;;
68507;SDS011;55510;49.560;19.090;2023-06-14T11:27:51;6.23;;;3.23;;
68507;SDS011;55510;49.560;19.090;2023-06-14T11:31:01;6.93;;;3.03;;
68507;SDS011;55510;49.560;19.090;2023-06-14T11:34:03;8.43;;;3.97;;
68507;SDS011;55510;49.560;19.090;2023-06-14T11:37:05;11.02;;;4.07;;
68507;SDS011;55510;49.560;19.090;2023-06-14T11:40:07;9.73;;;3.67;;
68507;SDS011;55510;49.560;19.090;2023-06-14T11:43:10;5.23;;;2.77;;
68507;SDS011;55510;49.560;19.090;2023-06-14T11:46:13;6.05;;;3.38;;
68507;SDS011;55510;49.560;19.090;2023-06-14T11:49:16;6.00;;;2.97;;
68507;SDS011;55510;49.560;19.090;2023-06-14T11:52:16;5.10;;;2.70;;
68507;SDS011;55510;49.560;19.090;2023-06-14T11:55:17;6.73;;;2.90;;
68507;SDS011;55510;49.560;19.090;2023-06-14T11:58:18;5.68;;;2.97;;
68507;SDS011;55510;49.560;19.090;2023-06-14T12:01:19;6.50;;;2.90;;
68507;SDS011;55510;49.560;19.090;2023-06-14T12:04:29;11.07;;;3.77;;
68507;SDS011;55510;49.560;19.090;2023-06-14T12:07:30;7.18;;;3.30;;
68507;SDS011;55510;49.560;19.090;2023-06-14T12:10:33;6.38;;;2.88;;
68507;SDS011;55510;49.560;19.090;2023-06-14T12:13:41;7.57;;;3.40;;
68507;SDS011;55510;49.560;19.090;2023-06-14T12:16:42;9.00;;;4.57;;
68507;SDS011;55510;49.560;19.090;2023-06-14T12:19:43;10.85;;;5.68;;
68507;SDS011;55510;49.560;19.090;2023-06-14T12:22:51;10.25;;;4.88;;
68507;SDS011;55510;49.560;19.090;2023-06-14T12:25:53;12.73;;;6.67;;
68507;SDS011;55510;49.560;19.090;2023-06-14T12:28:54;8.43;;;4.47;;
68507;SDS011;55510;49.560;19.090;2023-06-14T12:31:55;7.28;;;3.90;;
68507;SDS011;55510;49.560;19.090;2023-06-14T12:34:57;8.30;;;4.20;;
68507;SDS011;55510;49.560;19.090;2023-06-14T12:37:58;5.40;;;3.30;;
68507;SDS011;55510;49.560;19.090;2023-06-14T12:40:58;7.10;;;3.63;;
68507;SDS011;55510;49.560;19.090;2023-06-14T12:43:59;6.95;;;3.53;;
68507;SDS011;55510;49.560;19.090;2023-06-14T12:47:04;7.90;;;3.45;;
68507;SDS011;55510;49.560;19.090;2023-06-14T12:50:05;6.32;;;3.17;;
68507;SDS011;55510;49.560;19.090;2023-06-14T12:53:06;6.30;;;3.73;;
68507;SDS011;55510;49.560;19.090;2023-06-14T12:56:07;12.77;;;8.25;;
68507;SDS011;55510;49.560;19.090;2023-06-14T12:59:10;7.68;;;5.65;;
68507;SDS011;55510;49.560;19.090;2023-06-14T13:02:18;6.53;;;4.20;;
68507;SDS011;55510;49.560;19.090;2023-06-14T13:05:22;10.35;;;5.07;;
68507;SDS011;55510;49.560;19.090;2023-06-14T13:08:24;9.82;;;5.13;;
68507;SDS011;55510;49.560;19.090;2023-06-14T13:11:24;8.97;;;5.10;;
68507;SDS011;55510;49.560;19.090;2023-06-14T13:14:25;6.10;;;3.45;;
68507;SDS011;55510;49.560;19.090;2023-06-14T13:17:26;5.50;;;3.30;;
68507;SDS011;55510;49.560;19.090;2023-06-14T13:20:27;6.47;;;3.33;;
68507;SDS011;55510;49.560;19.090;2023-06-14T13:23:28;11.00;;;5.72;;
68507;SDS011;55510;49.560;19.090;2023-06-14T13:26:29;9.88;;;5.30;;
68507;SDS011;55510;49.560;19.090;2023-06-14T13:29:29;7.33;;;4.60;;
68507;SDS011;55510;49.560;19.090;2023-06-14T13:32:31;7.47;;;4.50;;
68507;SDS011;55510;49.560;19.090;2023-06-14T13:35:32;6.35;;;3.60;;
68507;SDS011;55510;49.560;19.090;2023-06-14T13:38:34;6.20;;;3.13;;
68507;SDS011;55510;49.560;19.090;2023-06-14T13:41:34;5.97;;;3.22;;
68507;SDS011;55510;49.560;19.090;2023-06-14T13:44:35;5.20;;;2.90;;
68507;SDS011;55510;49.560;19.090;2023-06-14T13:47:36;6.97;;;3.60;;
68507;SDS011;55510;49.560;19.090;2023-06-14T13:50:37;5.37;;;2.90;;
68507;SDS011;55510;49.560;19.090;2023-06-14T13:53:37;7.97;;;3.80;;
68507;SDS011;55510;49.560;19.090;2023-06-14T13:56:39;8.20;;;3.22;;
68507;SDS011;55510;49.560;19.090;2023-06-14T13:59:40;7.47;;;4.43;;
68507;SDS011;55510;49.560;19.090;2023-06-14T14:02:41;6.80;;;3.65;;
68507;SDS011;55510;49.560;19.090;2023-06-14T14:05:44;7.85;;;4.38;;
68507;SDS011;55510;49.560;19.090;2023-06-14T14:08:45;7.73;;;4.23;;
68507;SDS011;55510;49.560;19.090;2023-06-14T14:11:45;6.90;;;3.90;;
68507;SDS011;55510;49.560;19.090;2023-06-14T14:14:46;7.77;;;3.63;;
68507;SDS011;55510;49.560;19.090;2023-06-14T14:17:47;9.38;;;5.30;;
68507;SDS011;55510;49.560;19.090;2023-06-14T14:20:48;8.27;;;5.38;;
68507;SDS011;55510;49.560;19.090;2023-06-14T14:23:49;7.83;;;4.60;;
68507;SDS011;55510;49.560;19.090;2023-06-14T14:26:51;10.02;;;6.13;;
68507;SDS011;55510;49.560;19.090;2023-06-14T14:29:53;8.60;;;4.95;;
68507;SDS011;55510;49.560;19.090;2023-06-14T14:32:54;10.13;;;5.97;;
68507;SDS011;55510;49.560;19.090;2023-06-14T14:35:55;10.82;;;6.47;;
68507;SDS011;55510;49.560;19.090;2023-06-14T14:38:56;7.07;;;4.35;;
68507;SDS011;55510;49.560;19.090;2023-06-14T14:41:57;8.73;;;4.30;;
68507;SDS011;55510;49.560;19.090;2023-06-14T14:44:58;7.82;;;5.25;;
68507;SDS011;55510;49.560;19.090;2023-06-14T14:48:00;10.00;;;5.80;;
68507;SDS011;55510;49.560;19.090;2023-06-14T14:51:01;8.90;;;4.40;;
68507;SDS011;55510;49.560;19.090;2023-06-14T14:54:02;10.80;;;4.72;;
68507;SDS011;55510;49.560;19.090;2023-06-14T14:57:03;7.78;;;4.40;;
68507;SDS011;55510;49.560;19.090;2023-06-14T15:00:04;11.50;;;5.00;;
68507;SDS011;55510;49.560;19.090;2023-06-14T15:03:06;7.40;;;3.88;;
68507;SDS011;55510;49.560;19.090;2023-06-14T15:06:07;7.37;;;5.33;;
68507;SDS011;55510;49.560;19.090;2023-06-14T15:09:07;8.57;;;4.80;;
68507;SDS011;55510;49.560;19.090;2023-06-14T15:12:08;7.70;;;5.27;;
68507;SDS011;55510;49.560;19.090;2023-06-14T15:15:11;10.52;;;6.32;;
68507;SDS011;55510;49.560;19.090;2023-06-14T15:18:11;10.17;;;5.70;;
68507;SDS011;55510;49.560;19.090;2023-06-14T15:21:12;8.63;;;4.25;;
68507;SDS011;55510;49.560;19.090;2023-06-14T15:24:13;5.60;;;3.47;;
68507;SDS011;55510;49.560;19.090;2023-06-14T15:27:14;6.93;;;4.18;;
68507;SDS011;55510;49.560;19.090;2023-06-14T15:30:15;7.60;;;4.10;;
68507;SDS011;55510;49.560;19.090;2023-06-14T15:33:15;7.47;;;4.93;;
68507;SDS011;55510;49.560;19.090;2023-06-14T15:36:16;6.43;;;3.63;;
68507;SDS011;55510;49.560;19.090;2023-06-14T15:39:17;9.43;;;5.70;;
68507;SDS011;55510;49.560;19.090;2023-06-14T15:42:17;5.73;;;3.70;;
68507;SDS011;55510;49.560;19.090;2023-06-14T15:45:18;5.25;;;3.55;;
68507;SDS011;55510;49.560;19.090;2023-06-14T15:48:19;6.10;;;3.50;;
68507;SDS011;55510;49.560;19.090;2023-06-14T15:51:21;6.25;;;3.95;;
68507;SDS011;55510;49.560;19.090;2023-06-14T15:54:21;5.75;;;3.60;;
68507;SDS011;55510;49.560;19.090;2023-06-14T15:57:22;6.67;;;3.63;;
68507;SDS011;55510;49.560;19.090;2023-06-14T16:00:23;7.60;;;4.90;;
68507;SDS011;55510;49.560;19.090;2023-06-14T16:03:25;9.43;;;5.50;;
68507;SDS011;55510;49.560;19.090;2023-06-14T16:06:27;8.98;;;5.45;;
68507;SDS011;55510;49.560;19.090;2023-06-14T16:09:28;6.93;;;4.00;;
68507;SDS011;55510;49.560;19.090;2023-06-14T16:12:28;5.70;;;2.97;;
68507;SDS011;55510;49.560;19.090;2023-06-14T16:15:29;6.65;;;3.55;;
68507;SDS011;55510;49.560;19.090;2023-06-14T16:18:30;6.07;;;4.00;;
68507;SDS011;55510;49.560;19.090;2023-06-14T16:21:31;8.45;;;5.43;;
68507;SDS011;55510;49.560;19.090;2023-06-14T16:24:36;9.87;;;5.97;;
68507;SDS011;55510;49.560;19.090;2023-06-14T16:27:37;10.38;;;6.15;;
68507;SDS011;55510;49.560;19.090;2023-06-14T16:30:38;12.13;;;6.97;;
68507;SDS011;55510;49.560;19.090;2023-06-14T16:33:39;10.13;;;5.53;;
68507;SDS011;55510;49.560;19.090;2023-06-14T16:36:40;13.88;;;6.32;;
68507;SDS011;55510;49.560;19.090;2023-06-14T16:39:40;11.63;;;5.77;;
68507;SDS011;55510;49.560;19.090;2023-06-14T16:42:41;11.95;;;5.38;;
68507;SDS011;55510;49.560;19.090;2023-06-14T16:45:42;9.93;;;4.27;;
68507;SDS011;55510;49.560;19.090;2023-06-14T16:48:42;12.85;;;4.78;;
68507;SDS011;55510;49.560;19.090;2023-06-14T16:51:43;12.23;;;4.60;;
68507;SDS011;55510;49.560;19.090;2023-06-14T16:54:44;6.35;;;2.70;;
68507;SDS011;55510;49.560;19.090;2023-06-14T16:57:45;5.67;;;2.57;;
68507;SDS011;55510;49.560;19.090;2023-06-14T17:00:45;5.27;;;2.60;;
68507;SDS011;55510;49.560;19.090;2023-06-14T17:03:46;4.57;;;2.23;;
68507;SDS011;55510;49.560;19.090;2023-06-14T17:06:47;5.05;;;2.30;;
68507;SDS011;55510;49.560;19.090;2023-06-14T17:09:48;7.47;;;3.30;;
68507;SDS011;55510;49.560;19.090;2023-06-14T17:12:48;6.70;;;2.95;;
68507;SDS011;55510;49.560;19.090;2023-06-14T17:15:49;6.20;;;2.73;;
68507;SDS011;55510;49.560;19.090;2023-06-14T17:18:50;6.05;;;2.70;;
68507;SDS011;55510;49.560;19.090;2023-06-14T17:21:51;6.32;;;3.20;;
68507;SDS011;55510;49.560;19.090;2023-06-14T17:24:53;6.57;;;3.40;;
68507;SDS011;55510;49.560;19.090;2023-06-14T17:27:54;8.45;;;3.53;;
68507;SDS011;55510;49.560;19.090;2023-06-14T17:30:55;7.85;;;4.00;;
68507;SDS011;55510;49.560;19.090;2023-06-14T17:33:55;13.77;;;5.30;;
68507;SDS011;55510;49.560;19.090;2023-06-14T17:36:56;14.88;;;6.30;;
68507;SDS011;55510;49.560;19.090;2023-06-14T17:39:57;11.27;;;5.30;;
68507;SDS011;55510;49.560;19.090;2023-06-14T17:42:58;10.48;;;5.00;;
68507;SDS011;55510;49.560;19.090;2023-06-14T17:45:59;12.57;;;4.97;;
68507;SDS011;55510;49.560;19.090;2023-06-14T17:48:59;9.40;;;4.15;;
68507;SDS011;55510;49.560;19.090;2023-06-14T17:52:00;11.53;;;4.43;;
68507;SDS011;55510;49.560;19.090;2023-06-14T17:55:01;12.48;;;5.43;;
68507;SDS011;55510;49.560;19.090;2023-06-14T17:58:02;15.52;;;7.05;;
68507;SDS011;55510;49.560;19.090;2023-06-14T18:01:06;13.13;;;6.67;;
68507;SDS011;55510;49.560;19.090;2023-06-14T18:04:07;13.60;;;7.30;;
68507;SDS011;55510;49.560;19.090;2023-06-14T18:07:08;12.95;;;6.80;;
68507;SDS011;55510;49.560;19.090;2023-06-14T18:10:09;14.00;;;7.28;;
68507;SDS011;55510;49.560;19.090;2023-06-14T18:13:10;16.13;;;8.67;;
68507;SDS011;55510;49.560;19.090;2023-06-14T18:16:11;14.02;;;6.47;;
68507;SDS011;55510;49.560;19.090;2023-06-14T18:19:14;10.77;;;5.73;;
68507;SDS011;55510;49.560;19.090;2023-06-14T18:22:17;8.82;;;5.00;;